createdAt,value
2019-04-26T00:02:07.707Z,94205.25
2019-04-26T00:05:17.075Z,94198.77
2019-04-26T00:08:24.861Z,94206.99
2019-04-26T00:11:40.490Z,94206.59
2019-04-26T00:15:02.529Z,94205.28
2019-04-26T00:18:12.733Z,94202.27
2019-04-26T00:21:19.899Z,94202.00
2019-04-26T00:24:28.552Z,94188.64
2019-04-26T00:27:36.893Z,94193.00
2019-04-26T00:30:44.613Z,94189.20
2019-04-26T00:33:52.329Z,94192.38
2019-04-26T00:36:59.636Z,94187.14
2019-04-26T00:40:10.374Z,94192.20
2019-04-26T00:43:20.572Z,94187.13
2019-04-26T00:46:30.548Z,94189.67
2019-04-26T00:49:43.829Z,94180.84
2019-04-26T00:52:50.677Z,94176.98
2019-04-26T00:56:00.106Z,94172.69
2019-04-26T00:59:09.801Z,94179.92
2019-04-26T01:02:25.072Z,94188.34
2019-04-26T01:05:35.621Z,94183.16
2019-04-26T01:08:42.879Z,94176.72
2019-04-26T01:11:50.772Z,94177.40
2019-04-26T01:14:58.299Z,94180.90
2019-04-26T01:18:05.764Z,94173.90
2019-04-26T01:21:18.818Z,94165.69
2019-04-26T01:24:31.802Z,94161.33
2019-04-26T01:27:39.756Z,94158.64
2019-04-26T01:30:48.389Z,94157.02
2019-04-26T01:37:24.732Z,94148.37
2019-04-26T01:40:35.910Z,94149.16
2019-04-26T01:44:11.092Z,94145.17
2019-04-26T01:47:18.528Z,94145.14
2019-04-26T01:50:29.459Z,94136.70
2019-04-26T01:53:37.477Z,94125.98
2019-04-26T01:56:49.309Z,94125.61
2019-04-26T02:00:01.962Z,94129.04
2019-04-26T02:03:22.931Z,94125.27
2019-04-26T02:06:34.858Z,94119.27
2019-04-26T02:09:40.622Z,94119.72
2019-04-26T02:12:48.952Z,94120.23
2019-04-26T02:15:56.372Z,94119.38
2019-04-26T02:19:04.587Z,94117.80
2019-04-26T02:22:31.969Z,94119.51
2019-04-26T02:25:39.764Z,94113.34
2019-04-26T02:28:48.811Z,94108.03
2019-04-26T02:32:03.653Z,94098.95
2019-04-26T02:35:11.641Z,94101.81
2019-04-26T02:38:19.786Z,94096.72
2019-04-26T02:41:29.943Z,94099.59
2019-04-26T02:44:56.983Z,94103.98
2019-04-26T02:48:19.100Z,94107.95
2019-04-26T02:51:34.092Z,94111.61
2019-04-26T02:54:57.799Z,94114.20
2019-04-26T02:58:05.396Z,94117.11
2019-04-26T03:01:12.989Z,94116.17
2019-04-26T03:04:24.295Z,94116.30
2019-04-26T03:08:14.542Z,94110.44
2019-04-26T03:11:27.271Z,94112.19
2019-04-26T03:14:49.662Z,94113.34
2019-04-26T03:18:33.472Z,94105.53
2019-04-26T03:21:54.952Z,94106.23
2019-04-26T03:25:36.955Z,94110.27
2019-04-26T03:29:04.407Z,94117.63
2019-04-26T03:33:23.855Z,94126.56
2019-04-26T03:37:29.524Z,94116.95
2019-04-26T03:40:55.135Z,94133.96
2019-04-26T03:44:24.823Z,94138.50
2019-04-26T03:47:42.360Z,94140.59
2019-04-26T03:51:04.904Z,94151.48
2019-04-26T03:54:20.968Z,94156.83
2019-04-26T03:57:47.117Z,94147.86
2019-04-26T04:01:01.166Z,94165.41
2019-04-26T04:04:28.716Z,94177.05
2019-04-26T04:07:45.961Z,94173.38
2019-04-26T04:11:00.600Z,94188.73
2019-04-26T04:14:27.083Z,94189.97
2019-04-26T04:17:50.808Z,94184.00
2019-04-26T04:21:48.391Z,94210.31
2019-04-26T04:25:02.952Z,94218.27
2019-04-26T04:29:39.946Z,94217.81
2019-04-26T04:32:59.981Z,94230.09
2019-04-26T04:36:21.501Z,94230.87
2019-04-26T04:39:53.528Z,94237.91
2019-04-26T04:43:31.891Z,94243.88
2019-04-26T04:47:32.848Z,94249.42
2019-04-26T04:50:51.230Z,94243.06
2019-04-26T04:54:19.568Z,94247.08
2019-04-26T04:58:03.981Z,94262.20
2019-04-26T05:01:44.297Z,94276.30
2019-04-26T05:05:26.728Z,94284.52
2019-04-26T05:09:09.088Z,94294.21
2019-04-26T05:12:46.235Z,94285.41
2019-04-26T05:16:33.320Z,94304.66
2019-04-26T05:20:29.864Z,94329.17
2019-04-26T05:24:13.142Z,94322.34
2019-04-26T05:28:02.113Z,94341.71
2019-04-26T05:31:37.003Z,94348.61
2019-04-26T05:35:05.238Z,94362.23
2019-04-26T05:38:51.175Z,94370.66
2019-04-26T05:42:40.377Z,94363.74
2019-04-26T05:46:31.214Z,94371.00
2019-04-26T05:50:44.902Z,94368.08
2019-04-26T05:54:58.474Z,94382.42
2019-04-26T05:58:39.007Z,94388.41
2019-04-26T06:02:30.447Z,94383.94
2019-04-26T06:06:30.422Z,94391.80
2019-04-26T06:10:30.099Z,94387.94
2019-04-26T06:14:51.423Z,94390.45
2019-04-26T06:18:40.220Z,94387.91
2019-04-26T06:22:28.040Z,94391.25
2019-04-26T06:25:57.521Z,94410.07
2019-04-26T06:29:18.126Z,94408.21
2019-04-26T06:32:35.840Z,94406.77
2019-04-26T06:35:48.738Z,94408.23
2019-04-26T06:39:34.481Z,94410.17
2019-04-26T06:43:05.444Z,94409.86
2019-04-26T06:46:56.216Z,94421.91
2019-04-26T06:50:24.807Z,94437.29
2019-04-26T06:54:05.605Z,94443.22
2019-04-26T06:58:01.406Z,94445.13
2019-04-26T07:01:28.902Z,94447.32
2019-04-26T07:05:33.289Z,94450.77
2019-04-26T07:09:02.221Z,94457.39
2019-04-26T07:12:41.312Z,94453.59
2019-04-26T07:16:30.035Z,94452.05
2019-04-26T07:20:31.852Z,94464.41
2019-04-26T07:24:22.260Z,94451.38
2019-04-26T07:28:03.314Z,94449.75
2019-04-26T07:31:17.274Z,94459.05
2019-04-26T07:34:52.576Z,94460.88
2019-04-26T07:39:34.137Z,94460.94
2019-04-26T07:43:41.739Z,94457.50
2019-04-26T07:47:41.502Z,94469.36
2019-04-26T07:51:51.869Z,94494.56
2019-04-26T07:55:34.238Z,94487.52
2019-04-26T07:59:55.475Z,94492.02
2019-04-26T08:03:43.497Z,94478.52
2019-04-26T08:07:04.984Z,94470.62
2019-04-26T08:10:19.392Z,94497.47
2019-04-26T08:13:32.581Z,94491.89
2019-04-26T08:17:28.117Z,94486.22
2019-04-26T08:21:12.367Z,94495.45
2019-04-26T08:24:27.785Z,94502.53
2019-04-26T08:27:36.221Z,94508.42
2019-04-26T08:30:47.704Z,94516.01
2019-04-26T08:34:03.952Z,94502.91
2019-04-26T08:37:22.547Z,94512.80
2019-04-26T08:40:33.123Z,94517.59
2019-04-26T08:43:59.792Z,94526.05
2019-04-26T08:47:36.735Z,94530.59
2019-04-26T08:50:47.307Z,94528.23
2019-04-26T08:53:57.913Z,94523.63
2019-04-26T08:57:10.003Z,94520.56
2019-04-26T09:00:28.971Z,94528.42
2019-04-26T09:04:01.698Z,94530.77
2019-04-26T09:07:17.400Z,94531.11
2019-04-26T09:10:28.692Z,94534.97
2019-04-26T09:13:42.919Z,94545.84
2019-04-26T09:16:50.943Z,94533.03
2019-04-26T09:19:58.384Z,94533.38
2019-04-26T09:23:40.211Z,94541.72
2019-04-26T09:27:05.608Z,94552.53
2019-04-26T09:30:44.071Z,94548.61
2019-04-26T09:33:56.216Z,94561.22
2019-04-26T09:37:04.153Z,94569.80
2019-04-26T09:40:19.747Z,94563.19
2019-04-26T09:43:31.497Z,94567.85
2019-04-26T09:46:52.939Z,94566.03
2019-04-26T09:50:21.204Z,94556.34
2019-04-26T09:53:28.842Z,94574.47
2019-04-26T09:56:36.519Z,94593.48
2019-04-26T09:59:44.036Z,94591.02
2019-04-26T10:02:51.740Z,94600.41
2019-04-26T10:05:59.630Z,94593.57
2019-04-26T10:09:17.311Z,94592.31
2019-04-26T10:12:32.631Z,94595.92
2019-04-26T10:16:12.402Z,94589.00
2019-04-26T10:19:31.706Z,94603.22
2019-04-26T10:22:39.589Z,94606.26
2019-04-26T10:25:47.265Z,94605.28
2019-04-26T10:28:57.077Z,94621.80
2019-04-26T10:32:04.530Z,94624.20
2019-04-26T10:35:12.306Z,94621.97
2019-04-26T10:38:23.577Z,94630.03
2019-04-26T10:41:28.796Z,94625.45
2019-04-26T10:44:39.890Z,94620.04
2019-04-26T10:47:46.121Z,94624.59
2019-04-26T10:50:53.768Z,94633.05
2019-04-26T10:54:10.500Z,94621.76
2019-04-26T10:57:29.269Z,94633.34
2019-04-26T11:00:39.228Z,94637.38
2019-04-26T11:03:46.487Z,94643.77
2019-04-26T11:06:54.278Z,94653.00
2019-04-26T11:10:03.008Z,94650.52
2019-04-26T11:13:10.633Z,94662.59
2019-04-26T11:16:18.880Z,94667.24
2019-04-26T11:19:26.810Z,94681.25
2019-04-26T11:22:37.635Z,94666.97
2019-04-26T11:25:44.076Z,94662.98
2019-04-26T11:28:55.523Z,94665.50
2019-04-26T11:32:02.695Z,94669.46
2019-04-26T11:35:10.324Z,94662.98
2019-04-26T11:38:17.780Z,94670.75
2019-04-26T11:41:25.487Z,94699.23
2019-04-26T11:44:33.190Z,94717.47
2019-04-26T11:47:54.258Z,94735.11
2019-04-26T11:50:52.209Z,94748.06
2019-04-26T11:53:59.487Z,94756.89
2019-04-26T11:57:08.211Z,94740.94
2019-04-26T12:00:27.429Z,94720.69
2019-04-26T12:03:34.397Z,94727.97
2019-04-26T12:06:50.131Z,94722.84
2019-04-26T12:09:59.161Z,94742.34
2019-04-26T12:13:06.526Z,94762.07
2019-04-26T12:16:14.678Z,94777.90
2019-04-26T12:19:23.717Z,94780.09
2019-04-26T12:22:31.193Z,94796.32
2019-04-26T12:25:42.972Z,94808.66
2019-04-26T12:28:48.009Z,94826.69
2019-04-26T12:31:55.515Z,94829.42
2019-04-26T12:35:03.319Z,94840.56
2019-04-26T12:38:10.490Z,94851.34
2019-04-26T12:41:39.252Z,94850.97
2019-04-26T12:44:41.174Z,94855.92
2019-04-26T12:48:22.359Z,94863.03
2019-04-26T12:51:30.442Z,94855.83
2019-04-26T12:54:39.013Z,94862.63
2019-04-26T12:57:48.166Z,94872.84
2019-04-26T13:00:56.045Z,94863.01
2019-04-26T13:04:04.681Z,94849.74
2019-04-26T13:07:23.731Z,94865.38
2019-04-26T13:10:49.954Z,94885.16
2019-04-26T13:14:01.038Z,94881.22
2019-04-26T13:17:11.994Z,94861.06
2019-04-26T13:20:20.026Z,94846.77
2019-04-26T13:23:32.301Z,94840.29
2019-04-26T13:26:40.554Z,94836.14
2019-04-26T13:30:02.450Z,94865.34
2019-04-26T13:33:10.115Z,94885.95
2019-04-26T13:36:18.573Z,94891.20
2019-04-26T13:39:51.195Z,94895.23
2019-04-26T13:43:00.265Z,94902.41
2019-04-26T13:46:30.546Z,94920.45
2019-04-26T13:50:01.735Z,94927.91
2019-04-26T13:53:09.311Z,94921.30
2019-04-26T13:56:16.614Z,94933.36
2019-04-26T13:59:24.107Z,94937.70
2019-04-26T14:02:31.273Z,94929.87
2019-04-26T14:05:38.858Z,94940.05
2019-04-26T14:08:47.598Z,94941.41
2019-04-26T14:11:58.075Z,94946.92
2019-04-26T14:15:08.465Z,94954.93
2019-04-26T14:18:14.752Z,94968.45
2019-04-26T14:21:22.737Z,94971.64
2019-04-26T14:24:38.610Z,94979.50
2019-04-26T14:27:49.999Z,94962.87
2019-04-26T14:30:57.626Z,94954.76
2019-04-26T14:34:07.019Z,94967.70
2019-04-26T14:37:15.595Z,94981.41
2019-04-26T14:40:24.095Z,94963.59
2019-04-26T14:43:40.532Z,94972.80
2019-04-26T14:46:48.560Z,94974.72
2019-04-26T14:49:53.428Z,94981.41
2019-04-26T14:53:02.458Z,94984.17
2019-04-26T14:56:11.065Z,94987.24
2019-04-26T14:59:39.340Z,94971.77
2019-04-26T15:03:03.282Z,94969.36
2019-04-26T15:06:21.516Z,94978.37
2019-04-26T15:09:33.074Z,94984.67
2019-04-26T15:12:46.124Z,95004.44
2019-04-26T15:15:48.624Z,95018.20
2019-04-26T15:18:56.287Z,95017.04
2019-04-26T15:22:10.405Z,95006.58
2019-04-26T15:25:16.251Z,95015.37
2019-04-26T15:28:23.628Z,95038.36
2019-04-26T15:31:32.984Z,95041.30
2019-04-26T15:34:40.660Z,95033.70
2019-04-26T15:37:49.414Z,95032.27
2019-04-26T15:41:19.508Z,95020.73
2019-04-26T15:44:35.525Z,95032.54
2019-04-26T15:48:02.772Z,95023.53
2019-04-26T15:51:10.161Z,95009.94
2019-04-26T15:54:17.846Z,95003.56
2019-04-26T15:57:30.888Z,95011.38
2019-04-26T16:00:36.262Z,95020.95
2019-04-26T16:03:45.846Z,95028.44
2019-04-26T16:06:53.548Z,95040.08
2019-04-26T16:10:00.800Z,95028.66
2019-04-26T16:13:17.989Z,95032.63
2019-04-26T16:16:20.698Z,95029.45
2019-04-26T16:19:27.858Z,95034.47
2019-04-26T16:22:37.725Z,95039.75
2019-04-26T16:25:48.006Z,95043.52
2019-04-26T16:29:18.168Z,95032.27
2019-04-26T16:32:58.855Z,95026.35
2019-04-26T16:36:06.439Z,95001.36
2019-04-26T16:39:13.885Z,94993.69
2019-04-26T16:42:23.313Z,95000.36
2019-04-26T16:45:32.680Z,94997.72
2019-04-26T16:48:40.005Z,95002.70
2019-04-26T16:51:53.878Z,94999.66
2019-04-26T16:55:02.336Z,94995.48
2019-04-26T16:58:06.095Z,94992.22
2019-04-26T17:01:15.136Z,94990.23
2019-04-26T17:04:29.037Z,94996.77
2019-04-26T17:07:39.181Z,95000.92
2019-04-26T17:10:43.172Z,95002.73
2019-04-26T17:13:56.471Z,94997.44
2019-04-26T17:17:00.608Z,95000.94
2019-04-26T17:20:10.786Z,94998.78
2019-04-26T17:23:40.270Z,95003.69
2019-04-26T17:26:54.923Z,95008.37
2019-04-26T17:30:05.348Z,95001.86
2019-04-26T17:33:13.403Z,95005.76
2019-04-26T17:36:21.872Z,94995.95
2019-04-26T17:39:30.369Z,94990.90
2019-04-26T17:42:37.993Z,94995.08
2019-04-26T17:45:46.037Z,95000.69
2019-04-26T17:48:53.742Z,95004.73
2019-04-26T17:52:02.020Z,95013.26
2019-04-26T17:55:11.858Z,95007.80
2019-04-26T17:58:27.811Z,95009.36
2019-04-26T18:01:42.875Z,95012.24
2019-04-26T18:04:40.706Z,95010.08
2019-04-26T18:07:56.243Z,95015.24
2019-04-26T18:10:58.190Z,95009.38
2019-04-26T18:14:08.210Z,95011.09
2019-04-26T18:17:32.984Z,95008.91
2019-04-26T18:21:05.029Z,94999.52
2019-04-26T18:24:13.329Z,95004.17
2019-04-26T18:27:21.102Z,94998.97
2019-04-26T18:30:28.648Z,95004.05
2019-04-26T18:33:36.048Z,95010.22
2019-04-26T18:36:43.686Z,95009.17
2019-04-26T18:39:51.290Z,95012.10
2019-04-26T18:42:59.057Z,95022.05
2019-04-26T18:46:15.645Z,95018.28
2019-04-26T18:49:26.993Z,95025.88
2019-04-26T18:52:37.318Z,95030.56
2019-04-26T18:55:45.614Z,95030.40
2019-04-26T18:58:55.656Z,95044.39
2019-04-26T19:02:04.095Z,95044.31
2019-04-26T19:05:14.130Z,95037.38
2019-04-26T19:08:27.016Z,95037.39
2019-04-26T19:11:32.706Z,95039.07
2019-04-26T19:15:03.320Z,95047.11
2019-04-26T19:18:22.199Z,95053.45
2019-04-26T19:21:38.959Z,95053.94
2019-04-26T19:24:44.194Z,95051.42
2019-04-26T19:27:53.888Z,95050.27
2019-04-26T19:31:02.420Z,95050.17
2019-04-26T19:34:11.579Z,95052.31
2019-04-26T19:37:19.406Z,95056.88
2019-04-26T19:40:27.780Z,95047.11
2019-04-26T19:43:39.215Z,95050.99
2019-04-26T19:46:54.075Z,95037.44
2019-04-26T19:50:13.561Z,95044.27
2019-04-26T19:53:47.354Z,95036.17
2019-04-26T19:57:03.659Z,95034.98
2019-04-26T20:00:11.065Z,95037.45
2019-04-26T20:03:19.739Z,95040.86
2019-04-26T20:06:27.273Z,95042.20
2019-04-26T20:09:34.890Z,95050.59
2019-04-26T20:12:42.490Z,95048.30
2019-04-26T20:15:52.829Z,95051.34
2019-04-26T20:19:00.687Z,95051.47
2019-04-26T20:22:08.525Z,95052.73
2019-04-26T20:25:16.730Z,95047.13
2019-04-26T20:28:24.245Z,95052.63
2019-04-26T20:31:54.511Z,95053.16
2019-04-26T20:35:26.760Z,95052.13
2019-04-26T20:38:35.847Z,95061.75
2019-04-26T20:41:40.850Z,95054.77
2019-04-26T20:44:51.407Z,95053.83
2019-04-26T20:47:58.987Z,95052.52
2019-04-26T20:51:10.785Z,95058.12
2019-04-26T20:54:17.486Z,95048.92
2019-04-26T20:57:26.536Z,95054.00
2019-04-26T21:00:36.600Z,95061.86
2019-04-26T21:03:45.965Z,95069.05
2019-04-26T21:06:53.817Z,95068.14
2019-04-26T21:10:01.237Z,95066.10
2019-04-26T21:13:08.923Z,95055.63
2019-04-26T21:16:16.763Z,95058.85
2019-04-26T21:19:24.446Z,95053.52
2019-04-26T21:22:31.995Z,95056.33
2019-04-26T21:25:47.161Z,95052.88
2019-04-26T21:29:13.432Z,95046.39
2019-04-26T21:32:47.169Z,95045.13
2019-04-26T21:36:20.751Z,95039.00
2019-04-26T21:39:39.375Z,95045.49
2019-04-26T21:42:45.559Z,95046.80
2019-04-26T21:45:57.568Z,95065.69
2019-04-26T21:49:03.654Z,95072.42
2019-04-26T21:52:11.402Z,95060.46
2019-04-26T21:55:19.212Z,95054.37
2019-04-26T21:58:26.913Z,95053.08
2019-04-26T22:01:34.805Z,95051.58
2019-04-26T22:04:43.613Z,95054.83
2019-04-26T22:07:53.403Z,95070.13
2019-04-26T22:11:00.881Z,95071.80
2019-04-26T22:14:19.863Z,95065.39
2019-04-26T22:17:40.342Z,95070.65
2019-04-26T22:20:54.580Z,95070.73
2019-04-26T22:24:16.962Z,95075.33
2019-04-26T22:27:25.281Z,95075.39
2019-04-26T22:30:34.073Z,95075.41
2019-04-26T22:33:42.862Z,95072.64
2019-04-26T22:36:50.453Z,95069.33
2019-04-26T22:40:00.480Z,95077.87
2019-04-26T22:43:26.626Z,95081.83
2019-04-26T22:46:54.345Z,95076.06
2019-04-26T22:50:01.924Z,95083.92
2019-04-26T22:53:11.841Z,95084.33
2019-04-26T22:56:19.001Z,95080.38
2019-04-26T22:59:26.862Z,95068.79
2019-04-26T23:02:34.178Z,95066.93
2019-04-26T23:05:43.273Z,95067.09
2019-04-26T23:08:51.238Z,95066.93
2019-04-26T23:12:10.413Z,95064.09
2019-04-26T23:15:33.792Z,95063.95
2019-04-26T23:18:51.280Z,95062.98
2019-04-26T23:21:59.125Z,95071.48
2019-04-26T23:25:06.596Z,95067.63
2019-04-26T23:28:14.129Z,95063.23
2019-04-26T23:31:23.604Z,95069.63
2019-04-26T23:34:31.023Z,95069.48
2019-04-26T23:37:38.595Z,95065.28
2019-04-26T23:40:46.361Z,95070.11
2019-04-26T23:43:56.527Z,95061.52
2019-04-26T23:47:18.211Z,95060.44
2019-04-26T23:50:14.046Z,95060.39
2019-04-26T23:53:21.532Z,95063.08
2019-04-26T23:56:28.910Z,95066.94
2019-04-26T23:59:36.362Z,95069.14
